Terminal Aerodrome Forecast
Issued by NWS Louisville, KY

Home | Current Version | Previous Version | Text Only | Print | Product List | Glossary On
Versions: 1 2 3 4 5 6 7 8 9 10 11 12 13 14 15 16 17 18 19 20 21 22 23 24 25
000
FTUS43 KLMK 030900 AAA
TAFBWG
TAF AMD
KBWG 030938Z 0310/0406 VRB03KT P6SM SCT009 BKN070
     FM031100 24004KT P6SM BKN008
     FM031600 24006KT 6SM HZ BKN015
     FM032000 25010G16KT 5SM HZ VCTS BKN015CB=

USA.gov is the U.S. government's official web portal to all federal, state and local government web resources and services.